createdAt,value
2019-06-01T00:45:02.016Z,99.90
2019-06-01T00:47:32.036Z,99.90
2019-06-01T00:50:02.949Z,99.90
2019-06-01T01:33:57.614Z,99.90
2019-06-01T01:36:28.275Z,99.90
2019-06-01T01:38:59.073Z,99.90
2019-06-01T01:41:29.431Z,99.90
2019-06-01T01:43:59.713Z,99.90
2019-06-01T01:46:29.454Z,99.90
2019-06-01T01:48:58.984Z,99.90
2019-06-01T01:51:28.795Z,99.90
2019-06-01T01:53:59.117Z,99.90
2019-06-01T01:56:32.485Z,99.90
2019-06-01T02:54:59.663Z,99.90
2019-06-01T02:57:29.263Z,99.90
2019-06-01T03:00:00.336Z,99.90
2019-06-01T05:54:54.566Z,99.90
2019-06-01T05:57:25.961Z,99.90
2019-06-01T05:59:57.428Z,99.90
2019-06-01T07:03:11.395Z,99.90
2019-06-01T07:05:46.795Z,99.90
2019-06-01T08:22:13.531Z,99.90
2019-06-01T08:24:44.545Z,99.90
2019-06-01T08:27:14.967Z,99.90
2019-06-01T08:29:44.842Z,99.90
2019-06-01T08:32:15.129Z,99.90
2019-06-01T08:42:33.627Z,99.90
2019-06-01T09:54:53.462Z,97.00
2019-06-01T09:57:27.698Z,97.80
2019-06-01T10:00:01.325Z,98.00
2019-06-01T10:02:34.108Z,97.70
2019-06-01T10:05:04.765Z,97.70
2019-06-01T11:30:02.735Z,91.40
2019-06-01T11:44:58.537Z,91.60
2019-06-01T11:47:28.690Z,91.20
2019-06-01T11:52:41.060Z,92.60
2019-06-01T12:35:52.665Z,89.20
2019-06-01T14:25:41.755Z,81.50
2019-06-01T14:28:12.229Z,78.80
2019-06-01T15:19:43.056Z,75.20
2019-06-01T15:22:15.809Z,75.30
2019-06-01T16:08:33.439Z,70.60
2019-06-01T16:11:06.251Z,70.00
2019-06-01T16:13:35.741Z,70.30
2019-06-01T16:16:05.823Z,69.50
2019-06-01T16:18:35.806Z,69.20
2019-06-01T16:21:05.320Z,66.10
2019-06-01T16:23:49.313Z,66.40
2019-06-01T16:26:17.930Z,65.90
2019-06-01T16:28:54.359Z,63.90
2019-06-01T16:31:30.194Z,63.10
2019-06-01T22:43:53.401Z,99.90
2019-06-01T22:46:24.362Z,99.90
2019-06-01T22:48:54.461Z,99.90
2019-06-01T22:51:24.999Z,99.90
2019-06-01T23:31:40.480Z,99.90
2019-06-01T23:34:16.383Z,99.90
2019-06-01T23:39:25.061Z,99.90
2019-06-01T23:41:55.276Z,99.90
2019-06-01T23:44:29.299Z,99.90
2019-06-01T23:47:01.792Z,99.90
2019-06-01T23:49:36.192Z,99.90
2019-06-01T23:52:07.098Z,99.90
2019-06-01T23:54:44.577Z,99.90
2019-06-01T23:57:18.311Z,99.90
2019-06-01T23:59:51.892Z,99.90
